Time;durP1;ratioP1;P1;durP2;ratioP2;P2;SDS_P1;SDS_P2;PMS_P1;PMS_P2;Temp;Humidity;BMP_temperature;BMP_pressure;BME280_temperature;BME280_humidity;BME280_pressure;Samples;Min_cycle;Max_cycle;Signal;HPM_P1;HPM_P2
2022/01/06 00:01:08;;;;;;;5.88;2.30;;;5.10;65.30;;;;;;7367823;19;20139;-44
2022/01/06 00:03:38;;;;;;;9.50;2.30;;;5.20;66.20;;;;;;7374378;19;20120;-44
2022/01/06 00:06:10;;;;;;;4.65;2.88;;;5.10;65.30;;;;;;7374765;19;20140;-44
2022/01/06 00:08:42;;;;;;;5.10;2.13;;;5.20;65.70;;;;;;7376447;19;20872;-44
2022/01/06 00:11:13;;;;;;;7.78;2.42;;;5.20;65.30;;;;;;7371198;19;20159;-44
2022/01/06 00:13:56;;;;;;;4.35;2.67;;;5.30;65.00;;;;;;7371771;19;20214;-44
2022/01/06 00:16:35;;;;;;;5.45;2.50;;;5.30;65.10;;;;;;7374671;19;20589;-44
2022/01/06 00:24:34;;;;;;;2.92;1.90;;;5.40;65.30;;;;;;7371888;19;20128;-44
2022/01/06 00:27:03;;;;;;;3.80;2.35;;;5.40;65.40;;;;;;7371947;19;20144;-44
2022/01/06 00:29:33;;;;;;;9.35;2.95;;;5.20;65.30;;;;;;7371832;19;20219;-46
2022/01/06 00:32:03;;;;;;;6.43;2.22;;;5.10;65.70;;;;;;7373598;19;20120;-47
2022/01/06 00:34:32;;;;;;;4.70;1.98;;;5.00;66.40;;;;;;7373217;19;20712;-46
2022/01/06 00:37:02;;;;;;;9.07;2.53;;;5.00;66.60;;;;;;7364881;19;20949;-47
2022/01/06 00:39:35;;;;;;;5.32;2.45;;;5.00;66.70;;;;;;7372342;19;20139;-46
2022/01/06 00:42:04;;;;;;;5.35;2.80;;;5.10;66.20;;;;;;7374335;19;20610;-47
2022/01/06 00:44:37;;;;;;;5.13;2.50;;;5.10;66.00;;;;;;7370353;19;20606;-47
2022/01/06 00:47:07;;;;;;;9.57;3.08;;;5.20;66.40;;;;;;7370399;19;20159;-47
2022/01/06 00:49:36;;;;;;;4.80;2.88;;;5.10;66.00;;;;;;7368919;19;20180;-46
2022/01/06 00:52:06;;;;;;;3.83;2.30;;;5.10;66.00;;;;;;7370823;19;20135;-46
2022/01/06 00:54:39;;;;;;;5.65;2.40;;;5.10;66.80;;;;;;7373919;19;20139;-47
2022/01/06 00:57:08;;;;;;;3.72;2.30;;;5.10;67.20;;;;;;7374081;19;20123;-46
2022/01/06 00:59:38;;;;;;;5.50;2.50;;;5.10;67.10;;;;;;7375026;19;20135;-45
2022/01/06 01:02:10;;;;;;;5.40;2.10;;;5.00;67.40;;;;;;7371853;19;20630;-47
2022/01/06 01:04:39;;;;;;;6.25;2.50;;;5.00;67.80;;;;;;7370989;19;20150;-47
2022/01/06 01:07:09;;;;;;;5.20;2.15;;;4.90;67.60;;;;;;7372242;19;20143;-47
2022/01/06 01:09:41;;;;;;;3.70;2.15;;;5.00;67.90;;;;;;7374933;19;20617;-47
2022/01/06 01:12:13;;;;;;;8.18;2.45;;;5.00;68.10;;;;;;7369951;19;20163;-47
2022/01/06 01:14:55;;;;;;;4.28;2.67;;;4.90;68.20;;;;;;7372219;19;20496;-47
2022/01/06 01:17:26;;;;;;;6.13;2.38;;;4.90;68.50;;;;;;7372081;19;20321;-47
2022/01/06 01:19:56;;;;;;;7.25;3.53;;;5.20;68.90;;;;;;7368589;19;20139;-46
2022/01/06 01:22:26;;;;;;;3.03;2.08;;;4.90;68.60;;;;;;7373838;19;20139;-47
2022/01/06 01:24:58;;;;;;;6.13;2.58;;;4.90;68.10;;;;;;7372843;19;20128;-47
2022/01/06 01:27:31;;;;;;;5.45;2.25;;;5.00;68.10;;;;;;7372548;19;20594;-46
2022/01/06 01:30:04;;;;;;;3.42;2.53;;;5.10;67.40;;;;;;7368696;19;20211;-46
2022/01/06 01:32:36;;;;;;;4.15;2.50;;;5.10;67.50;;;;;;7373489;19;20131;-46
2022/01/06 01:35:08;;;;;;;6.55;3.15;;;5.20;66.90;;;;;;7377017;19;20620;-47
2022/01/06 01:37:38;;;;;;;9.65;2.92;;;5.20;67.30;;;;;;7378486;19;20135;-48
2022/01/06 01:40:16;;;;;;;3.25;2.28;;;5.20;67.20;;;;;;7378219;19;20714;-46
2022/01/06 01:42:48;;;;;;;3.90;1.92;;;5.30;67.10;;;;;;7378518;19;20153;-47
2022/01/06 01:45:18;;;;;;;5.72;2.40;;;5.20;67.80;;;;;;7378577;19;20143;-47
2022/01/06 01:47:49;;;;;;;5.68;3.75;;;5.30;68.30;;;;;;7375185;19;20155;-46
2022/01/06 01:50:21;;;;;;;7.38;2.60;;;5.20;67.90;;;;;;7378279;19;20131;-47
2022/01/06 01:52:52;;;;;;;3.70;2.60;;;5.20;68.70;;;;;;7372175;19;20131;-47
2022/01/06 01:55:26;;;;;;;6.18;2.67;;;5.20;68.60;;;;;;7375804;19;20634;-47
2022/01/06 01:57:56;;;;;;;6.13;2.30;;;5.10;68.80;;;;;;7378459;19;20150;-46
2022/01/06 02:00:28;;;;;;;8.00;3.15;;;5.10;69.60;;;;;;7381105;19;20135;-47
2022/01/06 02:02:58;;;;;;;3.13;2.00;;;5.10;70.00;;;;;;7380238;19;20136;-47
2022/01/06 02:05:28;;;;;;;9.65;3.03;;;5.00;69.90;;;;;;7375344;19;20139;-46
2022/01/06 02:07:59;;;;;;;7.72;3.08;;;5.00;70.20;;;;;;7380299;19;20191;-48
2022/01/06 02:10:32;;;;;;;3.92;2.00;;;5.00;70.30;;;;;;7375767;19;20162;-47
2022/01/06 02:13:03;;;;;;;3.78;2.67;;;5.10;70.30;;;;;;7378675;19;21096;-47
2022/01/06 02:15:33;;;;;;;4.82;2.33;;;5.20;70.40;;;;;;7379495;19;20665;-46
2022/01/06 02:18:03;;;;;;;6.32;2.50;;;5.20;70.40;;;;;;7370002;19;20140;-46
2022/01/06 02:20:35;;;;;;;7.15;2.75;;;5.20;70.50;;;;;;7377485;19;20132;-47
2022/01/06 02:23:05;;;;;;;3.95;2.47;;;5.20;70.00;;;;;;7378857;19;20147;-47
2022/01/06 02:25:35;;;;;;;3.17;2.10;;;5.20;70.00;;;;;;7374010;19;20191;-46
2022/01/06 02:28:05;;;;;;;5.95;2.30;;;5.20;70.00;;;;;;7377915;19;20152;-48
2022/01/06 02:30:37;;;;;;;6.35;2.50;;;5.20;70.10;;;;;;7374664;19;20135;-46
2022/01/06 02:33:08;;;;;;;6.45;2.60;;;5.30;70.00;;;;;;7376371;19;20139;-47
2022/01/06 02:35:40;;;;;;;3.22;2.20;;;5.20;70.10;;;;;;7379351;19;20123;-46
2022/01/06 02:38:12;;;;;;;2.40;2.20;;;5.10;70.50;;;;;;7380010;19;20127;-48
2022/01/06 02:40:42;;;;;;;5.25;2.42;;;5.00;70.40;;;;;;7378812;19;20127;-48
2022/01/06 02:43:14;;;;;;;8.00;3.25;;;4.90;70.70;;;;;;7376255;19;20594;-47
2022/01/06 02:45:44;;;;;;;4.78;2.75;;;4.90;70.80;;;;;;7376248;19;20124;-47
2022/01/06 02:48:14;;;;;;;4.50;2.42;;;5.00;70.90;;;;;;7376339;19;20511;-46
2022/01/06 02:50:48;;;;;;;10.50;2.38;;;5.00;70.60;;;;;;7380047;19;20132;-46
2022/01/06 02:53:19;;;;;;;7.07;2.38;;;5.00;70.60;;;;;;7379113;19;20482;-47
2022/01/06 02:55:51;;;;;;;6.55;2.80;;;5.00;70.50;;;;;;7374379;19;20132;-46
2022/01/06 02:58:20;;;;;;;4.45;2.33;;;5.00;70.50;;;;;;7377436;19;20131;-47
2022/01/06 03:00:50;;;;;;;7.65;2.80;;;4.80;70.10;;;;;;7375892;19;20154;-47
2022/01/06 03:03:20;;;;;;;4.40;1.95;;;4.80;70.10;;;;;;7377323;19;20131;-47
2022/01/06 03:05:52;;;;;;;4.00;2.05;;;4.80;70.10;;;;;;7376564;19;20127;-47
2022/01/06 03:08:23;;;;;;;4.00;2.40;;;4.80;69.80;;;;;;7382070;19;20127;-46
2022/01/06 03:10:57;;;;;;;4.13;2.80;;;4.80;70.20;;;;;;7376486;19;20156;-48
2022/01/06 03:13:26;;;;;;;4.60;2.35;;;4.70;69.80;;;;;;7377563;19;20621;-46
2022/01/06 03:15:56;;;;;;;5.63;2.50;;;4.80;70.50;;;;;;7372170;19;20131;-49
2022/01/06 03:18:25;;;;;;;7.80;3.08;;;4.80;69.90;;;;;;7376951;19;20132;-46
2022/01/06 03:20:57;;;;;;;2.38;2.00;;;4.90;70.30;;;;;;7380671;19;20147;-46
2022/01/06 03:23:27;;;;;;;4.43;1.90;;;5.00;69.80;;;;;;7378452;19;20597;-47
2022/01/06 03:25:56;;;;;;;4.07;2.20;;;5.10;69.40;;;;;;7377885;19;20127;-45
2022/01/06 03:28:26;;;;;;;3.53;1.75;;;5.20;69.30;;;;;;7375519;19;20635;-47
2022/01/06 03:30:58;;;;;;;3.72;2.60;;;5.20;68.90;;;;;;7374149;19;20131;-47
2022/01/06 03:33:28;;;;;;;4.82;2.92;;;5.30;69.00;;;;;;7375363;19;20128;-47
2022/01/06 03:36:00;;;;;;;4.75;2.20;;;5.30;69.70;;;;;;7377077;19;20538;-46
2022/01/06 03:38:30;;;;;;;9.32;2.72;;;5.40;69.20;;;;;;7377617;19;20136;-47
2022/01/06 03:40:59;;;;;;;3.95;2.45;;;5.40;68.90;;;;;;7376732;19;20127;-47
2022/01/06 03:43:29;;;;;;;6.05;2.05;;;5.40;69.20;;;;;;7375936;19;20433;-47
2022/01/06 03:45:58;;;;;;;3.67;2.42;;;5.30;69.50;;;;;;7374820;19;20142;-46
2022/01/06 03:48:27;;;;;;;2.63;2.20;;;5.30;69.70;;;;;;7374656;19;20478;-48
2022/01/06 03:51:00;;;;;;;5.70;2.28;;;5.30;70.20;;;;;;7376183;19;20131;-47
2022/01/06 03:53:32;;;;;;;4.00;2.70;;;5.20;70.20;;;;;;7370890;19;20123;-47
2022/01/06 03:56:01;;;;;;;4.30;2.00;;;5.20;70.50;;;;;;7374792;19;20608;-48
2022/01/06 03:58:31;;;;;;;3.83;2.03;;;5.20;71.70;;;;;;7374407;19;20132;-46
2022/01/06 04:01:00;;;;;;;5.45;2.30;;;5.40;71.00;;;;;;7375215;19;20132;-46
2022/01/06 04:03:32;;;;;;;2.13;1.92;;;5.10;70.50;;;;;;7374618;19;20483;-47
2022/01/06 04:06:04;;;;;;;5.70;2.33;;;5.10;70.80;;;;;;7373378;19;20133;-47
2022/01/06 04:08:36;;;;;;;2.53;1.77;;;5.00;70.80;;;;;;7374178;19;20139;-47
2022/01/06 04:11:06;;;;;;;5.15;2.58;;;5.00;70.60;;;;;;7375462;19;20162;-47
2022/01/06 04:13:36;;;;;;;5.75;2.00;;;4.90;71.10;;;;;;7372268;19;20132;-47
2022/01/06 04:16:08;;;;;;;7.25;2.47;;;4.90;70.70;;;;;;7378574;19;20825;-47
2022/01/06 04:18:40;;;;;;;5.80;2.10;;;4.90;71.50;;;;;;7376055;19;20127;-47
2022/01/06 04:21:12;;;;;;;3.30;1.65;;;5.00;71.50;;;;;;7374683;19;20621;-47
2022/01/06 04:23:47;;;;;;;3.10;2.13;;;5.10;71.70;;;;;;7376672;19;20154;-47
2022/01/06 04:26:16;;;;;;;2.90;1.77;;;5.10;70.70;;;;;;7376095;19;20130;-47
2022/01/06 04:28:46;;;;;;;1.95;1.75;;;5.20;71.00;;;;;;7375175;19;20131;-46
2022/01/06 04:31:15;;;;;;;2.22;1.83;;;5.10;70.60;;;;;;7378048;19;20135;-46
2022/01/06 04:33:45;;;;;;;8.68;2.10;;;5.10;71.00;;;;;;7375420;19;20131;-47
2022/01/06 04:36:18;;;;;;;3.05;2.17;;;5.20;71.00;;;;;;7372029;19;20124;-47
2022/01/06 04:38:47;;;;;;;3.40;1.95;;;5.20;71.00;;;;;;7372622;19;20610;-47
2022/01/06 04:41:17;;;;;;;5.97;2.28;;;5.20;70.40;;;;;;7375141;19;20134;-47
2022/01/06 04:43:46;;;;;;;3.90;2.40;;;5.00;70.90;;;;;;7373112;19;20614;-46
2022/01/06 04:46:16;;;;;;;5.40;2.30;;;4.80;71.90;;;;;;7375094;19;20131;-47
2022/01/06 04:48:45;;;;;;;2.45;2.00;;;4.80;71.70;;;;;;7373029;19;20150;-46
2022/01/06 04:51:17;;;;;;;5.55;2.10;;;4.70;72.20;;;;;;7372523;19;20131;-47
2022/01/06 04:53:47;;;;;;;5.25;1.88;;;4.80;72.30;;;;;;7372706;19;20585;-47
2022/01/06 04:56:16;;;;;;;2.60;1.80;;;4.90;72.20;;;;;;7374118;19;20131;-47
2022/01/06 04:58:49;;;;;;;3.63;2.13;;;4.80;71.90;;;;;;7375209;19;20131;-47
2022/01/06 05:01:19;;;;;;;5.00;2.30;;;4.90;72.00;;;;;;7375168;19;20272;-47
2022/01/06 05:03:50;;;;;;;5.55;2.25;;;4.80;72.20;;;;;;7375366;19;20136;-47
2022/01/06 05:06:22;;;;;;;3.13;2.20;;;4.80;72.40;;;;;;7374028;19;20488;-46
2022/01/06 05:08:52;;;;;;;12.13;6.55;;;4.80;72.30;;;;;;7379576;19;20123;-47
2022/01/06 05:11:24;;;;;;;5.45;3.33;;;4.70;72.50;;;;;;7375807;19;20171;-46
2022/01/06 05:13:53;;;;;;;10.07;4.47;;;4.80;72.50;;;;;;7381623;19;20135;-47
2022/01/06 05:16:22;;;;;;;10.60;4.95;;;4.80;72.70;;;;;;7381424;19;20604;-47
2022/01/06 05:18:52;;;;;;;7.32;3.40;;;4.80;72.30;;;;;;7383501;19;20535;-46
2022/01/06 05:21:28;;;;;;;3.85;2.60;;;4.70;72.40;;;;;;7379036;19;20581;-46
2022/01/06 05:23:58;;;;;;;6.53;2.08;;;4.70;72.50;;;;;;7383628;19;20629;-47
2022/01/06 05:26:29;;;;;;;3.50;2.53;;;4.70;72.70;;;;;;7378827;19;20131;-46
2022/01/06 05:28:58;;;;;;;4.45;2.78;;;4.70;72.60;;;;;;7380845;19;20601;-47
2022/01/06 05:31:28;;;;;;;5.18;2.25;;;4.80;73.00;;;;;;7379425;19;20259;-46
2022/01/06 05:33:57;;;;;;;7.72;2.10;;;4.80;72.70;;;;;;7379701;19;20130;-47
2022/01/06 05:36:29;;;;;;;5.60;2.17;;;4.80;72.50;;;;;;7378700;19;20516;-47
2022/01/06 05:38:59;;;;;;;4.90;2.90;;;4.80;72.60;;;;;;7377042;19;20656;-46
2022/01/06 05:41:29;;;;;;;4.05;2.03;;;4.90;72.50;;;;;;7377829;19;20605;-46
2022/01/06 05:43:58;;;;;;;3.00;2.30;;;4.90;72.50;;;;;;7374072;19;20127;-46
2022/01/06 05:46:30;;;;;;;3.67;2.40;;;5.00;72.30;;;;;;7376919;19;20128;-47
2022/01/06 05:48:59;;;;;;;5.32;2.10;;;5.10;72.30;;;;;;7376870;19;20151;-46
2022/01/06 05:51:31;;;;;;;3.80;2.40;;;5.00;71.90;;;;;;7379470;19;20146;-46
2022/01/06 05:54:01;;;;;;;5.93;2.70;;;5.10;72.50;;;;;;7377675;19;20135;-47
2022/01/06 05:56:31;;;;;;;6.72;2.30;;;5.10;72.00;;;;;;7378642;19;20131;-47
2022/01/06 05:59:01;;;;;;;4.18;2.10;;;5.20;72.10;;;;;;7378107;19;20508;-46
2022/01/06 06:01:33;;;;;;;12.23;2.40;;;5.20;71.90;;;;;;7380419;19;20135;-47
2022/01/06 06:04:02;;;;;;;2.83;2.17;;;5.20;71.90;;;;;;7378585;19;20147;-46
2022/01/06 06:06:34;;;;;;;5.07;2.00;;;5.20;71.90;;;;;;7373794;19;20630;-47
2022/01/06 06:09:06;;;;;;;2.25;1.83;;;5.20;71.90;;;;;;7379212;19;20123;-46
2022/01/06 06:11:36;;;;;;;4.20;2.65;;;5.20;71.40;;;;;;7374217;19;20166;-47
2022/01/06 06:14:05;;;;;;;4.78;2.45;;;5.20;71.60;;;;;;7380393;19;20153;-47
2022/01/06 06:16:35;;;;;;;8.80;2.33;;;5.20;71.40;;;;;;7377912;19;20150;-47
2022/01/06 06:19:04;;;;;;;5.45;2.00;;;5.20;71.20;;;;;;7375539;19;20128;-47
2022/01/06 06:21:36;;;;;;;5.38;2.45;;;5.20;71.40;;;;;;7379303;19;20128;-45
2022/01/06 06:24:07;;;;;;;4.45;2.53;;;5.10;71.40;;;;;;7376484;19;20780;-46
2022/01/06 06:26:36;;;;;;;4.53;2.30;;;5.10;71.60;;;;;;7374439;19;20136;-48
2022/01/06 06:29:06;;;;;;;4.38;2.45;;;5.10;71.60;;;;;;7379414;19;20477;-48
2022/01/06 06:31:35;;;;;;;5.72;2.42;;;5.10;71.70;;;;;;7376849;19;20119;-48
2022/01/06 06:34:04;;;;;;;6.03;2.13;;;5.10;71.70;;;;;;7378497;19;20654;-46
2022/01/06 06:36:41;;;;;;;3.78;2.80;;;5.20;71.60;;;;;;7376909;19;20183;-48
2022/01/06 06:39:11;;;;;;;6.43;2.35;;;5.20;71.40;;;;;;7376399;19;20136;-47
2022/01/06 06:41:41;;;;;;;10.57;3.30;;;5.20;71.20;;;;;;7375863;19;20398;-47
2022/01/06 06:44:10;;;;;;;5.88;2.08;;;5.10;70.90;;;;;;7379544;19;20524;-46
2022/01/06 06:46:42;;;;;;;2.17;1.75;;;5.20;70.80;;;;;;7375980;19;20222;-48
2022/01/06 06:49:11;;;;;;;4.00;1.98;;;5.20;70.70;;;;;;7377001;19;20138;-47
2022/01/06 06:51:43;;;;;;;4.18;2.25;;;5.20;70.80;;;;;;7377722;19;20146;-47
2022/01/06 06:54:13;;;;;;;3.90;2.53;;;5.30;70.20;;;;;;7375443;19;20131;-47
2022/01/06 06:56:43;;;;;;;5.30;1.92;;;5.20;70.30;;;;;;7376067;19;20131;-47
2022/01/06 06:59:13;;;;;;;3.35;2.10;;;5.30;70.40;;;;;;7378585;19;20124;-47
2022/01/06 07:01:42;;;;;;;1.92;1.80;;;5.20;70.10;;;;;;7375238;19;20653;-46
2022/01/06 07:04:11;;;;;;;2.70;2.10;;;5.20;70.10;;;;;;7376371;19;20135;-48
2022/01/06 07:06:44;;;;;;;3.05;2.50;;;5.10;70.70;;;;;;7377467;19;20139;-47
2022/01/06 07:09:13;;;;;;;4.00;2.40;;;5.00;71.30;;;;;;7376904;19;20132;-48
2022/01/06 07:11:43;;;;;;;3.28;2.13;;;5.00;71.30;;;;;;7375259;19;20769;-46
2022/01/06 07:14:12;;;;;;;5.30;2.92;;;5.10;71.40;;;;;;7377480;19;20511;-47
2022/01/06 07:16:44;;;;;;;3.92;1.85;;;5.10;71.40;;;;;;7377346;19;20148;-47
2022/01/06 07:19:14;;;;;;;4.47;2.30;;;5.10;71.40;;;;;;7373058;19;20821;-47
2022/01/06 07:21:46;;;;;;;6.60;1.80;;;5.10;71.00;;;;;;7377531;19;20578;-47
2022/01/06 07:24:18;;;;;;;3.92;2.78;;;5.10;71.00;;;;;;7375927;19;20142;-47
2022/01/06 07:26:47;;;;;;;4.63;2.08;;;5.10;71.10;;;;;;7376415;19;20590;-47
2022/01/06 07:29:17;;;;;;;3.13;2.30;;;5.10;70.80;;;;;;7378665;19;20613;-46
2022/01/06 07:31:49;;;;;;;4.78;2.40;;;5.10;70.40;;;;;;7377113;19;20124;-48
2022/01/06 07:34:20;;;;;;;6.55;2.28;;;5.10;70.50;;;;;;7377252;19;20124;-47
2022/01/06 07:36:55;;;;;;;4.68;2.40;;;5.10;70.50;;;;;;7377617;19;20123;-47
2022/01/06 07:39:27;;;;;;;6.57;2.63;;;5.20;70.50;;;;;;7376792;19;20138;-48
2022/01/06 07:41:56;;;;;;;2.50;2.10;;;5.20;70.20;;;;;;7377018;19;20143;-48
2022/01/06 07:44:26;;;;;;;3.72;2.28;;;5.20;70.20;;;;;;7379431;19;20635;-48
2022/01/06 07:46:55;;;;;;;5.85;2.05;;;5.20;70.10;;;;;;7376553;19;20610;-47
2022/01/06 07:49:25;;;;;;;5.05;2.35;;;5.20;70.10;;;;;;7376245;19;20123;-48
2022/01/06 07:51:57;;;;;;;4.95;2.33;;;5.20;70.30;;;;;;7375256;19;20119;-47
2022/01/06 07:54:26;;;;;;;1.92;1.65;;;5.30;69.90;;;;;;7374004;19;20138;-47
2022/01/06 07:56:56;;;;;;;5.13;2.20;;;5.30;69.80;;;;;;7376178;19;21180;-48
2022/01/06 07:59:25;;;;;;;4.00;2.70;;;5.30;69.20;;;;;;7376748;19;20123;-48
2022/01/06 08:01:57;;;;;;;5.07;2.50;;;5.30;69.30;;;;;;7374321;19;20639;-47
2022/01/06 08:04:27;;;;;;;2.80;1.80;;;5.20;70.10;;;;;;7374753;19;20131;-48
2022/01/06 08:06:59;;;;;;;3.13;1.80;;;5.20;69.40;;;;;;7373286;19;20127;-48
2022/01/06 08:09:29;;;;;;;5.38;2.70;;;5.10;69.70;;;;;;7373155;19;20132;-48
2022/01/06 08:11:58;;;;;;;7.47;2.10;;;5.00;70.00;;;;;;7370439;19;20535;-49
2022/01/06 08:14:31;;;;;;;2.90;2.15;;;5.00;70.20;;;;;;7377000;19;20203;-47
2022/01/06 08:17:00;;;;;;;4.85;2.40;;;5.00;70.60;;;;;;7371848;19;21082;-48
2022/01/06 08:19:30;;;;;;;7.90;3.10;;;5.00;70.50;;;;;;7367921;19;20127;-47
2022/01/06 08:22:02;;;;;;;5.47;2.58;;;5.00;70.40;;;;;;7374015;19;20199;-47
2022/01/06 08:24:33;;;;;;;7.97;2.65;;;5.00;70.60;;;;;;7375947;19;20131;-47
2022/01/06 08:27:08;;;;;;;3.88;2.33;;;5.00;70.20;;;;;;7374024;19;20218;-47
2022/01/06 08:29:40;;;;;;;6.35;2.42;;;5.00;70.20;;;;;;7373462;19;20124;-47
2022/01/06 08:32:10;;;;;;;2.80;2.15;;;5.00;70.40;;;;;;7375673;19;20136;-47
2022/01/06 08:34:43;;;;;;;5.90;2.28;;;5.30;71.00;;;;;;7376036;19;20169;-47
2022/01/06 08:37:17;;;;;;;9.20;2.58;;;4.90;71.00;;;;;;7373594;19;20139;-47
2022/01/06 08:39:49;;;;;;;2.75;2.20;;;5.00;70.70;;;;;;7373125;19;20720;-47
2022/01/06 08:42:18;;;;;;;5.20;3.25;;;4.90;70.80;;;;;;7377731;19;20192;-47
2022/01/06 08:44:48;;;;;;;9.13;2.90;;;4.90;70.90;;;;;;7381107;19;20633;-48
2022/01/06 08:47:17;;;;;;;4.25;2.70;;;4.90;70.80;;;;;;7383699;19;20154;-49
2022/01/06 08:49:47;;;;;;;8.52;2.92;;;5.00;71.00;;;;;;7383402;19;20127;-47
2022/01/06 08:52:22;;;;;;;4.40;3.22;;;5.00;70.50;;;;;;7383925;19;20128;-47
2022/01/06 08:54:53;;;;;;;6.80;2.97;;;5.00;70.60;;;;;;7379570;19;20138;-47
2022/01/06 08:57:23;;;;;;;5.45;2.70;;;5.00;70.40;;;;;;7382456;19;21088;-46
2022/01/06 08:59:52;;;;;;;6.97;3.70;;;5.10;70.30;;;;;;7381543;19;20415;-45
2022/01/06 09:02:22;;;;;;;4.25;2.78;;;5.20;69.80;;;;;;7384414;19;20214;-46
2022/01/06 09:04:53;;;;;;;7.10;3.58;;;5.30;69.30;;;;;;7383766;19;20128;-46
2022/01/06 09:07:25;;;;;;;9.52;3.20;;;5.40;69.40;;;;;;7377995;19;20132;-46
2022/01/06 09:09:55;;;;;;;7.22;2.60;;;5.60;69.00;;;;;;7384959;19;20131;-47
2022/01/06 09:12:24;;;;;;;3.45;2.75;;;;;;;;;;7376424;19;20170;-48
2022/01/06 09:14:54;;;;;;;6.75;2.40;;;;;;;;;;7382281;19;20142;-46
2022/01/06 09:17:26;;;;;;;6.05;2.58;;;6.20;67.80;;;;;;7380411;19;20123;-47
2022/01/06 09:19:55;;;;;;;3.70;2.28;;;7.50;62.30;;;;;;7380710;19;20630;-46
2022/01/06 09:22:28;;;;;;;5.75;2.35;;;;;;;;;;7384248;19;20123;-47
2022/01/06 09:24:57;;;;;;;3.45;2.58;;;;;;;;;;7382585;19;20123;-47
2022/01/06 09:27:29;;;;;;;4.00;2.38;;;;;;;;;;7381273;19;20633;-48
2022/01/06 09:29:59;;;;;;;8.48;2.90;;;;;;;;;;7381873;19;20131;-47
2022/01/06 09:32:29;;;;;;;5.63;2.60;;;;;;;;;;7382873;19;20613;-47
2022/01/06 09:34:58;;;;;;;6.43;2.22;;;8.60;58.40;;;;;;7381067;19;20123;-47
2022/01/06 09:37:30;;;;;;;3.78;2.67;;;;;;;;;;7382673;19;20151;-48
2022/01/06 09:40:02;;;;;;;9.45;2.47;;;;;;;;;;7379119;19;20171;-46
2022/01/06 09:42:32;;;;;;;2.42;2.10;;;8.10;56.80;;;;;;7379052;19;20599;-47
2022/01/06 09:45:02;;;;;;;5.75;2.60;;;7.50;58.90;;;;;;7380839;19;20127;-47
2022/01/06 09:47:32;;;;;;;4.40;2.60;;;7.60;58.60;;;;;;7380614;19;20147;-47
2022/01/06 09:50:02;;;;;;;4.20;2.10;;;7.40;59.20;;;;;;7381105;19;20510;-47
2022/01/06 09:52:36;;;;;;;5.25;2.72;;;7.80;59.00;;;;;;7380842;19;20131;-47
2022/01/06 09:55:06;;;;;;;3.85;2.55;;;7.70;58.40;;;;;;7379537;19;20128;-47
2022/01/06 09:57:36;;;;;;;4.13;2.30;;;7.80;58.10;;;;;;7378699;19;20131;-47
2022/01/06 10:00:11;;;;;;;6.80;2.50;;;8.20;57.90;;;;;;7378690;19;20237;-47
2022/01/06 10:02:42;;;;;;;4.55;2.22;;;8.40;57.00;;;;;;7380407;19;20201;-48
2022/01/06 10:05:11;;;;;;;7.20;3.50;;;8.40;56.50;;;;;;7380390;19;20132;-47
2022/01/06 10:07:46;;;;;;;3.47;2.78;;;8.20;56.50;;;;;;7382061;19;20134;-48
2022/01/06 10:10:19;;;;;;;4.88;2.90;;;7.90;57.60;;;;;;7379892;19;20133;-47
2022/01/06 10:12:58;;;;;;;4.55;3.03;;;7.80;57.80;;;;;;7377339;19;20124;-47
2022/01/06 10:15:30;;;;;;;5.78;2.90;;;7.70;58.20;;;;;;7380812;19;20135;-48
2022/01/06 10:18:00;;;;;;;8.82;2.67;;;7.50;58.50;;;;;;7379068;19;20128;-47
2022/01/06 10:20:29;;;;;;;2.63;2.25;;;7.20;58.90;;;;;;7381149;19;20467;-48
2022/01/06 10:23:02;;;;;;;4.03;2.45;;;7.20;59.10;;;;;;7379877;19;20621;-48
2022/01/06 10:25:41;;;;;;;4.30;2.22;;;7.10;59.40;;;;;;7382075;19;20712;-48
2022/01/06 10:28:17;;;;;;;9.32;2.70;;;7.20;59.40;;;;;;7377337;19;20142;-48
2022/01/06 10:30:49;;;;;;;3.25;1.83;;;7.10;59.40;;;;;;7377191;19;20521;-47
2022/01/06 10:33:19;;;;;;;5.30;2.15;;;7.10;59.30;;;;;;7378232;19;20136;-48
2022/01/06 10:35:50;;;;;;;6.53;2.10;;;7.10;59.20;;;;;;7377783;19;20132;-48
2022/01/06 10:38:30;;;;;;;3.30;2.05;;;7.00;58.90;;;;;;7377983;19;20151;-48
2022/01/06 10:41:12;;;;;;;11.57;3.08;;;7.10;58.90;;;;;;7378143;19;20139;-48
2022/01/06 10:43:41;;;;;;;9.75;2.45;;;7.10;58.60;;;;;;7378101;19;20128;-48
2022/01/06 10:46:11;;;;;;;5.30;2.40;;;7.20;58.20;;;;;;7376931;19;20534;-48
2022/01/06 10:48:46;;;;;;;5.43;2.15;;;7.20;58.30;;;;;;7375246;19;20808;-49
2022/01/06 10:51:15;;;;;;;4.30;2.28;;;7.00;58.70;;;;;;7375998;19;20138;-47
2022/01/06 10:53:53;;;;;;;7.43;3.58;;;7.00;58.70;;;;;;7376142;19;20131;-47
2022/01/06 10:56:24;;;;;;;5.95;2.20;;;7.00;58.60;;;;;;7378074;19;20146;-48
2022/01/06 10:58:58;;;;;;;6.88;1.90;;;7.10;58.50;;;;;;7377757;19;20135;-49
2022/01/06 11:01:36;;;;;;;10.27;2.75;;;7.20;58.80;;;;;;7379997;19;20658;-48
2022/01/06 11:04:06;;;;;;;8.75;4.30;;;7.30;58.00;;;;;;7377208;19;20598;-49
2022/01/06 11:06:37;;;;;;;5.35;2.05;;;7.30;57.90;;;;;;7374786;19;20685;-48
2022/01/06 11:09:10;;;;;;;9.32;2.53;;;7.30;58.30;;;;;;7374211;19;20487;-49
2022/01/06 11:12:26;;;;;;;6.28;2.03;;;7.20;59.00;;;;;;7376893;19;20159;-45
2022/01/06 11:14:37;;;;;;;8.52;1.90;;;7.20;58.50;;;;;;7377933;19;20135;-47
2022/01/06 11:17:07;;;;;;;6.72;2.75;;;7.20;59.20;;;;;;7379090;19;20158;-49
2022/01/06 11:19:36;;;;;;;5.65;2.80;;;7.20;58.70;;;;;;7379349;19;20495;-47
2022/01/06 11:22:07;;;;;;;6.05;2.22;;;7.40;58.30;;;;;;7378507;19;20136;-48
2022/01/06 11:24:39;;;;;;;7.97;1.88;;;7.80;57.80;;;;;;7377069;19;20139;-48
2022/01/06 11:27:11;;;;;;;5.07;1.70;;;;;;;;;;7376058;19;20150;-47
2022/01/06 11:29:42;;;;;;;9.23;2.45;;;;;;;;;;7374316;19;20144;-46
2022/01/06 11:32:20;;;;;;;6.78;2.00;;;;;;;;;;7373993;19;20131;-46
2022/01/06 11:34:53;;;;;;;8.68;2.33;;;;;;;;;;7378425;19;20572;-46
2022/01/06 11:37:22;;;;;;;4.38;2.35;;;8.10;56.60;;;;;;7375660;19;20135;-45
2022/01/06 11:40:04;;;;;;;8.45;2.17;;;7.70;56.10;;;;;;7376440;19;20127;-45
2022/01/06 11:42:33;;;;;;;3.97;1.88;;;7.30;56.80;;;;;;7374162;19;20140;-45
2022/01/06 11:45:05;;;;;;;5.97;2.40;;;7.20;57.20;;;;;;7374384;19;20142;-45
2022/01/06 11:47:36;;;;;;;10.05;2.40;;;7.30;57.30;;;;;;7374124;19;20155;-45
2022/01/06 11:50:13;;;;;;;3.53;2.10;;;7.40;57.60;;;;;;7378088;19;20154;-46
2022/01/06 11:52:55;;;;;;;8.02;2.38;;;7.60;57.20;;;;;;7377490;19;20143;-45
2022/01/06 11:55:33;;;;;;;13.43;2.28;;;7.70;56.70;;;;;;7377427;19;20628;-45
2022/01/06 11:58:17;;;;;;;6.72;2.50;;;7.80;56.70;;;;;;7374241;19;20139;-46
2022/01/06 12:00:58;;;;;;;5.25;1.55;;;7.90;56.80;;;;;;7375485;19;20142;-47
2022/01/06 12:03:37;;;;;;;4.57;1.95;;;7.80;57.30;;;;;;7376754;19;20127;-47
2022/01/06 12:06:08;;;;;;;8.00;2.35;;;7.90;57.20;;;;;;7375989;19;20127;-47
2022/01/06 12:08:40;;;;;;;8.55;1.73;;;;;;;;;;7375293;19;20127;-47
2022/01/06 12:11:22;;;;;;;6.88;1.80;;;;;;;;;;7374568;19;20162;-47
2022/01/06 12:13:53;;;;;;;4.32;1.30;;;;;;;;;;7378703;19;20128;-47
2022/01/06 12:16:26;;;;;;;5.57;1.60;;;;;;;;;;7368849;19;20201;-48
2022/01/06 12:18:56;;;;;;;4.15;2.53;;;;;;;;;;7376030;19;20131;-47
2022/01/06 12:21:26;;;;;;;5.63;1.60;;;;;;;;;;7376242;19;20219;-47
2022/01/06 12:24:03;;;;;;;4.70;1.80;;;;;;;;;;7376227;19;20142;-48
2022/01/06 12:26:35;;;;;;;5.07;2.03;;;;;;;;;;7376895;19;20135;-47
2022/01/06 12:29:07;;;;;;;7.65;1.80;;;;;;;;;;7375093;19;20135;-47
2022/01/06 12:31:36;;;;;;;9.98;2.40;;;;;;;;;;7372256;19;20139;-46
2022/01/06 12:34:07;;;;;;;6.60;2.20;;;;;;;;;;7372133;19;20127;-47
2022/01/06 12:36:40;;;;;;;8.35;2.33;;;;;;;;;;7372803;19;20138;-47
2022/01/06 12:39:13;;;;;;;5.47;1.95;;;;;;;;;;7374494;19;20227;-48
2022/01/06 12:41:46;;;;;;;8.18;2.50;;;;;;;;;;7377057;19;20132;-49
2022/01/06 12:44:20;;;;;;;5.47;2.40;;;;;;;;;;7371614;19;20134;-48
2022/01/06 12:46:52;;;;;;;4.72;1.92;;;;;;;;;;7375604;19;20139;-48
2022/01/06 12:49:23;;;;;;;4.53;2.30;;;;;;;;;;7372289;19;20134;-49
2022/01/06 12:51:54;;;;;;;6.03;2.50;;;;;;;;;;7374739;19;20588;-47
2022/01/06 12:54:25;;;;;;;4.15;2.20;;;;;;;;;;7376429;19;20531;-48
2022/01/06 12:56:57;;;;;;;2.45;1.83;;;;;;;;;;7374241;19;20135;-48
2022/01/06 12:59:33;;;;;;;7.88;2.67;;;7.80;57.00;;;;;;7375449;19;20161;-48
2022/01/06 13:02:05;;;;;;;3.70;1.83;;;7.00;58.50;;;;;;7376165;19;20135;-48
2022/01/06 13:04:37;;;;;;;8.13;3.38;;;6.90;58.10;;;;;;7375874;19;20638;-47
2022/01/06 13:07:09;;;;;;;3.70;1.85;;;6.90;57.80;;;;;;7375367;19;20146;-48
2022/01/06 13:09:40;;;;;;;4.75;2.13;;;6.90;58.10;;;;;;7374180;19;20143;-47
2022/01/06 13:12:22;;;;;;;3.15;1.55;;;6.80;57.80;;;;;;7370570;19;20155;-49
2022/01/06 13:14:55;;;;;;;2.30;1.80;;;6.80;57.80;;;;;;7372726;19;20124;-48
2022/01/06 13:17:26;;;;;;;6.70;2.75;;;;;;;;;;7346007;19;20211;-48
2022/01/06 13:19:59;;;;;;;7.97;2.38;;;6.70;57.90;;;;;;7372997;19;20555;-48
2022/01/06 13:22:49;;;;;;;5.47;1.88;;;;;;;;;;7375565;19;20135;-48
2022/01/06 13:25:23;;;;;;;7.30;1.75;;;6.60;56.20;;;;;;7373748;19;20143;-48
2022/01/06 13:28:01;;;;;;;6.10;2.25;;;6.60;56.40;;;;;;7377468;19;20131;-47
2022/01/06 13:30:36;;;;;;;4.88;2.83;;;6.60;56.60;;;;;;7379287;19;20155;-49
2022/01/06 13:33:08;;;;;;;7.30;1.80;;;6.60;56.50;;;;;;7378822;19;20135;-48
2022/01/06 13:35:48;;;;;;;5.00;1.70;;;6.70;56.50;;;;;;7376553;19;20139;-48